Time;durP1;ratioP1;P1;durP2;ratioP2;P2;SDS_P1;SDS_P2;PMS_P1;PMS_P2;Temp;Humidity;BMP_temperature;BMP_pressure;BME280_temperature;BME280_humidity;BME280_pressure;Samples;Min_cycle;Max_cycle;Signal;HPM_P1;HPM_P2
2023/04/25 00:01:33;;;;;;;18.75;4.28;;;7.10;99.90;;;;;;5043973;28;20302;-75
2023/04/25 00:04:00;;;;;;;20.83;5.10;;;7.50;99.90;;;;;;5051167;28;20048;-75
2023/04/25 00:06:26;;;;;;;22.55;4.65;;;7.10;99.90;;;;;;5057400;28;20330;-75
2023/04/25 00:08:53;;;;;;;22.15;4.95;;;7.00;99.90;;;;;;5059820;28;20442;-75
2023/04/25 00:11:18;;;;;;;18.75;4.40;;;7.10;99.90;;;;;;5064680;28;20086;-75
2023/04/25 00:13:46;;;;;;;21.02;4.70;;;7.10;99.90;;;;;;5053702;28;20091;-75
2023/04/25 00:16:14;;;;;;;31.58;5.35;;;7.00;99.90;;;;;;5042415;28;20128;-75
2023/04/25 00:18:40;;;;;;;16.02;3.75;;;7.00;99.90;;;;;;5041704;28;20187;-75
2023/04/25 00:21:06;;;;;;;19.35;4.55;;;7.00;99.90;;;;;;5043655;28;20043;-75
2023/04/25 00:23:32;;;;;;;20.45;4.03;;;7.00;99.90;;;;;;5059995;28;20044;-75
2023/04/25 00:25:57;;;;;;;21.77;4.38;;;7.00;99.90;;;;;;5036067;28;20510;-75
2023/04/25 00:28:23;;;;;;;14.90;4.00;;;7.00;99.90;;;;;;5055787;28;20690;-75
2023/04/25 00:30:50;;;;;;;16.48;4.07;;;7.00;99.90;;;;;;5050328;28;20131;-75
2023/04/25 00:33:15;;;;;;;19.13;4.00;;;6.90;99.90;;;;;;5056593;28;20131;-75
2023/04/25 00:35:42;;;;;;;21.23;3.58;;;7.20;99.90;;;;;;5043125;28;20556;-75
2023/04/25 00:38:08;;;;;;;15.07;2.85;;;6.90;99.90;;;;;;5041989;28;20032;-76
2023/04/25 00:40:35;;;;;;;15.02;3.47;;;6.80;99.90;;;;;;5056903;28;20584;-75
2023/04/25 00:43:00;;;;;;;14.60;3.38;;;6.70;99.90;;;;;;5059127;28;20127;-75
2023/04/25 00:45:30;;;;;;;12.43;3.10;;;6.60;99.90;;;;;;5059538;28;20040;-75
2023/04/25 00:47:56;;;;;;;16.00;3.65;;;6.70;99.90;;;;;;5030851;28;20037;-76
2023/04/25 00:50:22;;;;;;;16.35;3.10;;;6.70;99.90;;;;;;5055425;28;20082;-75
2023/04/25 00:52:48;;;;;;;15.35;2.92;;;6.50;99.90;;;;;;5060858;28;20077;-75
2023/04/25 00:55:15;;;;;;;16.42;2.88;;;6.50;99.90;;;;;;5058368;28;20442;-75
2023/04/25 00:57:42;;;;;;;17.15;3.55;;;6.70;99.90;;;;;;5056134;28;20422;-75
2023/04/25 01:00:13;;;;;;;14.90;3.53;;;6.70;99.90;;;;;;5036523;28;20106;-75
2023/04/25 01:02:40;;;;;;;16.90;3.60;;;6.50;99.90;;;;;;5055569;28;20047;-75
2023/04/25 01:05:06;;;;;;;17.25;3.13;;;5.30;99.90;;;;;;5054650;28;20272;-75
2023/04/25 01:07:33;;;;;;;16.65;3.25;;;6.60;99.90;;;;;;5033191;28;20486;-75
2023/04/25 01:09:59;;;;;;;15.25;3.03;;;6.60;99.90;;;;;;5056142;28;20056;-75
2023/04/25 01:12:24;;;;;;;14.07;3.42;;;6.60;99.90;;;;;;5058634;28;20418;-75
2023/04/25 01:14:50;;;;;;;15.93;3.22;;;6.60;99.90;;;;;;5058141;28;20076;-75
2023/04/25 01:17:17;;;;;;;16.38;3.45;;;6.60;99.90;;;;;;5041295;28;20123;-75
2023/04/25 01:19:44;;;;;;;15.48;2.90;;;6.60;99.90;;;;;;5042466;28;20494;-75
2023/04/25 01:22:10;;;;;;;12.27;3.45;;;6.60;99.90;;;;;;5047423;28;20051;-75
2023/04/25 01:24:37;;;;;;;20.70;3.75;;;6.60;99.90;;;;;;5052819;28;20133;-75
2023/04/25 01:27:03;;;;;;;14.32;2.88;;;6.60;99.90;;;;;;5053219;28;20048;-75
2023/04/25 01:29:29;;;;;;;12.85;2.95;;;6.60;99.90;;;;;;5057256;28;20362;-75
2023/04/25 01:31:55;;;;;;;15.82;3.33;;;6.60;99.90;;;;;;5055805;28;20040;-75
2023/04/25 01:34:21;;;;;;;17.13;3.47;;;6.60;99.90;;;;;;5051411;28;20040;-75
2023/04/25 01:36:50;;;;;;;13.60;3.20;;;6.60;99.90;;;;;;5044557;28;20032;-75
2023/04/25 01:39:17;;;;;;;14.30;3.25;;;6.50;99.90;;;;;;5047704;28;20121;-75
2023/04/25 01:41:43;;;;;;;13.85;3.38;;;6.70;99.90;;;;;;5037164;28;20482;-75
2023/04/25 01:44:09;;;;;;;17.92;3.28;;;6.60;99.90;;;;;;5052023;28;20047;-75
2023/04/25 01:46:35;;;;;;;19.15;3.38;;;6.50;99.90;;;;;;5067050;28;20058;-75
2023/04/25 01:49:01;;;;;;;14.50;2.80;;;6.60;99.90;;;;;;5053388;28;20820;-75
2023/04/25 01:51:28;;;;;;;15.45;3.05;;;6.60;99.90;;;;;;5054515;28;20028;-75
2023/04/25 01:53:54;;;;;;;14.73;3.25;;;6.50;99.90;;;;;;5061096;28;20040;-75
2023/04/25 01:56:20;;;;;;;13.55;3.45;;;6.50;99.90;;;;;;5061519;28;20397;-76
2023/04/25 01:58:46;;;;;;;18.35;2.95;;;6.50;99.90;;;;;;5055182;28;20032;-75
2023/04/25 02:01:12;;;;;;;12.93;2.83;;;6.50;99.90;;;;;;5060109;28;20131;-76
2023/04/25 02:03:38;;;;;;;15.70;3.25;;;6.50;99.90;;;;;;5061887;28;20616;-75
2023/04/25 02:06:03;;;;;;;16.50;3.45;;;8.30;99.90;;;;;;5036634;28;20279;-75
2023/04/25 02:08:30;;;;;;;16.92;3.55;;;6.50;99.90;;;;;;5050276;28;20044;-75
2023/04/25 02:10:55;;;;;;;13.82;3.30;;;6.50;99.90;;;;;;5060079;28;20089;-76
2023/04/25 02:13:21;;;;;;;16.25;3.55;;;6.50;99.90;;;;;;5065181;28;20036;-75
2023/04/25 02:15:47;;;;;;;12.00;3.75;;;6.50;99.90;;;;;;5048439;28;20053;-75
2023/04/25 02:18:15;;;;;;;14.75;3.28;;;6.50;99.90;;;;;;5067344;28;20032;-75
2023/04/25 02:20:41;;;;;;;20.10;3.45;;;6.40;99.90;;;;;;5054905;28;20048;-75
2023/04/25 02:23:07;;;;;;;14.20;3.22;;;6.30;99.90;;;;;;5062003;28;20051;-75
2023/04/25 02:25:33;;;;;;;13.85;3.28;;;6.30;99.90;;;;;;5050669;28;20407;-76
2023/04/25 02:27:59;;;;;;;18.27;3.30;;;6.30;99.90;;;;;;5061681;28;20131;-75
2023/04/25 02:30:24;;;;;;;15.82;3.67;;;6.30;99.90;;;;;;5052124;28;20036;-75
2023/04/25 02:32:50;;;;;;;20.60;3.97;;;6.20;99.90;;;;;;5034263;28;20038;-75
2023/04/25 02:35:16;;;;;;;12.57;2.90;;;6.80;99.90;;;;;;5061820;28;20047;-75
2023/04/25 02:37:42;;;;;;;18.10;3.17;;;6.20;99.90;;;;;;5053799;28;20493;-75
2023/04/25 02:40:08;;;;;;;15.98;3.53;;;6.20;99.90;;;;;;5065997;28;20486;-75
2023/04/25 02:42:35;;;;;;;17.38;2.97;;;6.20;99.90;;;;;;5068909;28;20066;-75
2023/04/25 02:45:01;;;;;;;14.15;2.92;;;6.40;99.90;;;;;;5057668;28;20047;-75
2023/04/25 02:47:27;;;;;;;14.40;3.00;;;6.20;99.90;;;;;;5061927;28;20413;-75
2023/04/25 02:49:52;;;;;;;14.10;3.03;;;6.20;99.90;;;;;;5057830;28;20044;-75
2023/04/25 02:52:18;;;;;;;15.60;2.72;;;6.10;99.90;;;;;;5055425;28;20109;-75
2023/04/25 02:54:44;;;;;;;12.70;3.30;;;6.40;99.90;;;;;;5059938;28;20036;-75
2023/04/25 02:57:10;;;;;;;13.07;2.63;;;6.10;99.90;;;;;;5053652;28;20142;-76
2023/04/25 02:59:35;;;;;;;15.07;3.33;;;6.40;99.90;;;;;;5053174;28;20578;-75
2023/04/25 03:02:01;;;;;;;16.02;2.90;;;6.10;99.90;;;;;;5054826;28;20036;-76
2023/04/25 03:04:27;;;;;;;14.38;3.20;;;6.00;99.90;;;;;;5064846;28;20048;-75
2023/04/25 03:06:53;;;;;;;11.43;2.63;;;6.00;99.90;;;;;;5040400;28;20043;-75
2023/04/25 03:09:19;;;;;;;14.73;3.20;;;5.90;99.90;;;;;;5050064;28;20037;-75
2023/04/25 03:11:46;;;;;;;19.60;3.53;;;5.90;99.90;;;;;;5060062;28;20032;-75
2023/04/25 03:14:12;;;;;;;15.38;3.22;;;4.90;99.90;;;;;;5050001;28;20048;-75
2023/04/25 03:16:38;;;;;;;14.30;3.00;;;5.80;99.90;;;;;;5058408;28;20413;-75
2023/04/25 03:19:04;;;;;;;12.05;3.03;;;5.80;99.90;;;;;;5062627;28;20059;-75
2023/04/25 03:21:32;;;;;;;14.60;2.90;;;5.70;99.90;;;;;;5057318;28;20028;-75
2023/04/25 03:23:58;;;;;;;16.55;3.05;;;5.70;99.90;;;;;;5064121;28;20044;-75
2023/04/25 03:26:24;;;;;;;14.73;2.70;;;5.70;99.90;;;;;;5049863;28;20074;-75
2023/04/25 03:28:50;;;;;;;15.50;2.92;;;5.70;99.90;;;;;;5064338;28;20454;-76
2023/04/25 03:31:15;;;;;;;16.90;2.88;;;5.60;99.90;;;;;;5064313;28;20544;-75
2023/04/25 03:33:41;;;;;;;11.48;2.63;;;5.60;99.90;;;;;;5060167;28;20123;-75
2023/04/25 03:36:07;;;;;;;11.65;2.75;;;6.20;99.90;;;;;;5046268;28;20063;-76
2023/04/25 03:38:33;;;;;;;17.77;3.00;;;5.60;99.90;;;;;;5034736;28;20067;-75
2023/04/25 03:40:59;;;;;;;16.83;3.55;;;5.60;99.90;;;;;;5058804;28;20072;-75
2023/04/25 03:43:25;;;;;;;15.93;2.92;;;5.90;99.90;;;;;;5062960;28;20451;-75
2023/04/25 03:45:51;;;;;;;17.65;3.10;;;5.50;99.90;;;;;;5055723;28;20274;-75
2023/04/25 03:48:16;;;;;;;12.90;2.80;;;5.50;99.90;;;;;;5033176;28;20516;-76
2023/04/25 03:50:42;;;;;;;16.35;3.15;;;5.60;99.90;;;;;;5062890;28;20047;-75
2023/04/25 03:53:08;;;;;;;14.35;2.70;;;5.60;99.90;;;;;;5047631;28;20071;-75
2023/04/25 03:55:33;;;;;;;14.45;2.97;;;6.00;99.90;;;;;;5050187;28;20036;-76
2023/04/25 03:57:59;;;;;;;14.45;3.15;;;5.70;99.90;;;;;;5038294;28;20048;-76
2023/04/25 04:00:25;;;;;;;13.32;2.80;;;5.60;99.90;;;;;;5063951;28;20124;-75
2023/04/25 04:02:51;;;;;;;10.18;2.60;;;5.60;99.90;;;;;;5060928;28;20536;-75
2023/04/25 04:05:17;;;;;;;14.98;2.90;;;5.50;99.90;;;;;;5063962;28;20055;-75
2023/04/25 04:07:42;;;;;;;9.82;2.78;;;5.50;99.90;;;;;;5052502;28;20049;-75
2023/04/25 04:10:10;;;;;;;14.57;2.80;;;5.40;99.90;;;;;;5051588;28;20128;-75
2023/04/25 04:12:36;;;;;;;16.27;3.00;;;5.40;99.90;;;;;;5069900;28;20051;-75
2023/04/25 04:15:06;;;;;;;11.65;3.00;;;5.30;99.90;;;;;;5052019;28;20582;-76
2023/04/25 04:17:32;;;;;;;14.80;3.00;;;5.20;99.90;;;;;;5050710;28;20040;-75
2023/04/25 04:19:58;;;;;;;13.60;2.60;;;5.20;99.90;;;;;;5043220;28;20036;-75
2023/04/25 04:22:24;;;;;;;13.48;3.22;;;5.20;99.90;;;;;;5067045;28;20142;-75
2023/04/25 04:24:50;;;;;;;13.23;2.78;;;5.20;99.90;;;;;;5052604;28;20040;-75
2023/04/25 04:27:19;;;;;;;22.58;3.65;;;5.60;99.90;;;;;;5067785;28;20044;-75
2023/04/25 04:29:45;;;;;;;11.15;2.88;;;5.70;99.90;;;;;;5050241;28;20052;-75
2023/04/25 04:32:12;;;;;;;12.43;3.05;;;5.10;99.90;;;;;;5065653;28;20047;-75
2023/04/25 04:34:39;;;;;;;15.38;2.85;;;5.20;99.90;;;;;;5073938;28;20093;-76
2023/04/25 04:37:06;;;;;;;14.65;3.10;;;5.10;99.90;;;;;;5062646;28;20040;-75
2023/04/25 04:39:33;;;;;;;14.88;2.30;;;5.10;99.90;;;;;;5053573;28;20260;-75
2023/04/25 04:41:59;;;;;;;11.68;2.67;;;5.10;99.90;;;;;;5056276;28;20032;-75
2023/04/25 04:44:25;;;;;;;13.43;2.40;;;5.10;99.90;;;;;;5048500;28;20039;-75
2023/04/25 04:46:51;;;;;;;13.63;2.50;;;5.10;99.90;;;;;;5055923;28;20043;-75
2023/04/25 04:49:17;;;;;;;11.05;2.50;;;5.10;99.90;;;;;;5061382;28;20052;-75
2023/04/25 04:51:46;;;;;;;12.65;2.78;;;5.50;99.90;;;;;;5049749;28;20514;-75
2023/04/25 04:54:12;;;;;;;15.60;2.70;;;5.10;99.90;;;;;;5049392;28;20039;-75
2023/04/25 04:56:38;;;;;;;11.68;3.03;;;5.20;99.90;;;;;;5046540;28;20036;-74
2023/04/25 04:59:04;;;;;;;11.88;2.63;;;5.50;99.90;;;;;;5055453;28;20169;-75
2023/04/25 05:01:30;;;;;;;15.23;2.42;;;5.20;99.90;;;;;;5060426;28;20067;-75
2023/04/25 05:04:00;;;;;;;15.02;2.70;;;5.30;99.90;;;;;;5068237;28;20044;-75
2023/04/25 05:06:28;;;;;;;13.95;2.45;;;5.30;99.90;;;;;;5063844;28;20047;-75
2023/04/25 05:08:54;;;;;;;17.42;3.15;;;5.40;99.90;;;;;;5058845;28;20123;-75
2023/04/25 05:11:20;;;;;;;18.17;2.78;;;5.50;99.90;;;;;;5050580;28;20186;-75
2023/04/25 05:13:47;;;;;;;12.82;2.83;;;5.50;99.90;;;;;;5068534;28;20053;-75
2023/04/25 05:16:13;;;;;;;10.68;3.30;;;5.70;99.90;;;;;;5034804;28;20110;-75
2023/04/25 05:18:39;;;;;;;10.80;2.47;;;5.40;99.90;;;;;;5057859;28;20474;-74
2023/04/25 05:21:05;;;;;;;12.35;2.53;;;5.40;99.90;;;;;;5065268;28;20244;-75
2023/04/25 05:23:32;;;;;;;9.32;2.03;;;5.40;99.90;;;;;;5070096;28;20553;-75
2023/04/25 05:25:59;;;;;;;10.43;2.58;;;5.40;99.90;;;;;;5051833;28;20456;-75
2023/04/25 05:28:24;;;;;;;11.07;2.33;;;5.40;99.90;;;;;;5058338;28;20077;-74
2023/04/25 05:30:50;;;;;;;7.78;1.80;;;5.40;99.90;;;;;;5045427;28;20047;-74
2023/04/25 05:33:16;;;;;;;7.35;1.88;;;5.40;99.90;;;;;;5069923;28;20066;-74
2023/04/25 05:35:42;;;;;;;9.70;1.90;;;5.40;99.90;;;;;;5036442;28;20067;-74
2023/04/25 05:38:08;;;;;;;10.40;1.90;;;5.40;99.90;;;;;;5047670;28;20064;-75
2023/04/25 05:40:34;;;;;;;9.63;1.80;;;5.40;99.90;;;;;;5051228;28;20229;-75
2023/04/25 05:42:59;;;;;;;10.80;1.90;;;5.50;99.90;;;;;;5060584;28;20033;-75
2023/04/25 05:45:25;;;;;;;10.02;2.00;;;5.70;99.90;;;;;;5055633;28;20540;-76
2023/04/25 05:47:51;;;;;;;8.95;2.22;;;5.80;99.90;;;;;;5052813;28;20041;-76
2023/04/25 05:50:17;;;;;;;8.52;1.75;;;5.90;99.90;;;;;;5048179;28;20523;-75
2023/04/25 05:52:42;;;;;;;7.78;2.10;;;6.00;99.90;;;;;;5047985;28;20520;-75
2023/04/25 05:55:08;;;;;;;9.88;2.05;;;6.00;99.90;;;;;;5037935;28;20039;-75
2023/04/25 05:57:34;;;;;;;11.40;2.10;;;6.00;99.90;;;;;;5064253;28;20076;-75
2023/04/25 06:00:00;;;;;;;12.20;2.58;;;6.00;99.90;;;;;;5056426;28;20028;-75
2023/04/25 06:02:26;;;;;;;11.25;2.28;;;5.80;99.90;;;;;;5056851;28;20039;-75
2023/04/25 06:04:52;;;;;;;9.38;2.08;;;5.80;99.90;;;;;;5036121;28;20036;-75
2023/04/25 06:07:18;;;;;;;7.53;1.88;;;5.80;99.90;;;;;;5047192;28;20043;-75
2023/04/25 06:09:44;;;;;;;9.80;2.03;;;5.30;99.90;;;;;;5046253;28;20040;-75
2023/04/25 06:12:10;;;;;;;10.20;2.38;;;5.30;99.90;;;;;;5054918;28;20052;-75
2023/04/25 06:14:37;;;;;;;10.43;2.33;;;5.30;99.90;;;;;;5049327;28;20425;-75
2023/04/25 06:17:08;;;;;;;14.93;2.95;;;5.40;99.90;;;;;;5062283;28;20039;-75
2023/04/25 06:19:34;;;;;;;11.25;2.33;;;5.50;99.90;;;;;;5051171;28;20398;-75
2023/04/25 06:22:00;;;;;;;9.88;2.20;;;5.90;99.90;;;;;;5048296;28;20036;-75
2023/04/25 06:24:25;;;;;;;9.45;2.75;;;5.60;99.90;;;;;;5049786;28;20036;-75
2023/04/25 06:26:52;;;;;;;9.00;2.33;;;5.60;99.90;;;;;;5044527;28;20059;-75
2023/04/25 06:29:18;;;;;;;9.32;2.22;;;5.70;99.90;;;;;;5032985;28;20052;-75
2023/04/25 06:31:44;;;;;;;10.05;2.17;;;5.70;99.90;;;;;;5043675;28;20059;-75
2023/04/25 06:34:10;;;;;;;9.25;1.92;;;5.80;99.90;;;;;;5048118;28;20040;-75
2023/04/25 06:36:35;;;;;;;8.65;1.88;;;5.90;99.90;;;;;;5054985;28;20184;-75
2023/04/25 06:39:01;;;;;;;8.55;1.63;;;6.20;99.90;;;;;;5043947;28;20028;-75
2023/04/25 06:41:27;;;;;;;11.13;2.40;;;6.40;99.90;;;;;;5066741;28;20033;-75
2023/04/25 06:43:53;;;;;;;9.50;1.85;;;6.50;99.90;;;;;;5044622;28;20087;-75
2023/04/25 06:46:19;;;;;;;8.70;2.00;;;6.80;99.90;;;;;;5051225;28;20048;-75
2023/04/25 06:48:44;;;;;;;9.93;2.10;;;6.90;99.90;;;;;;5040332;28;20158;-75
2023/04/25 06:51:10;;;;;;;8.85;2.03;;;7.20;99.90;;;;;;5063562;28;20070;-76
2023/04/25 06:53:36;;;;;;;8.15;2.00;;;7.30;99.90;;;;;;5044349;28;20037;-75
2023/04/25 06:56:02;;;;;;;12.70;2.20;;;7.50;99.90;;;;;;5048514;28;20050;-75
2023/04/25 06:58:28;;;;;;;10.32;2.33;;;7.70;99.90;;;;;;5050954;28;20076;-75
2023/04/25 07:00:54;;;;;;;10.82;2.50;;;7.80;99.90;;;;;;5047331;28;20068;-76
2023/04/25 07:03:20;;;;;;;11.07;2.20;;;7.70;99.90;;;;;;5051696;28;20036;-75
2023/04/25 07:05:46;;;;;;;8.90;1.90;;;7.60;99.90;;;;;;5064520;28;20032;-75
2023/04/25 07:08:12;;;;;;;11.45;2.10;;;7.40;99.90;;;;;;5069502;28;20029;-75
2023/04/25 07:10:37;;;;;;;9.27;1.88;;;7.30;99.90;;;;;;5050834;28;20035;-75
2023/04/25 07:13:03;;;;;;;11.90;2.13;;;7.10;99.90;;;;;;5046286;28;20489;-75
2023/04/25 07:15:30;;;;;;;9.82;1.90;;;7.00;99.90;;;;;;5043731;28;20464;-75
2023/04/25 07:17:56;;;;;;;11.27;2.50;;;7.00;99.90;;;;;;5041610;28;20040;-75
2023/04/25 07:20:22;;;;;;;10.27;1.92;;;7.00;99.90;;;;;;5049602;28;20477;-75
2023/04/25 07:22:47;;;;;;;13.40;2.80;;;7.00;99.90;;;;;;5045567;28;20090;-75
2023/04/25 07:25:13;;;;;;;10.45;2.05;;;7.10;99.90;;;;;;5061702;28;20494;-75
2023/04/25 07:27:39;;;;;;;10.73;2.00;;;7.20;99.90;;;;;;5043764;28;20041;-75
2023/04/25 07:30:06;;;;;;;10.52;2.75;;;7.20;99.90;;;;;;5041353;28;20056;-75
2023/04/25 07:32:31;;;;;;;13.60;2.30;;;7.30;99.90;;;;;;5058685;28;20127;-75
2023/04/25 07:34:57;;;;;;;12.85;2.15;;;7.60;99.90;;;;;;5052000;28;20119;-75
2023/04/25 07:37:23;;;;;;;11.00;2.22;;;7.70;99.90;;;;;;5037227;28;20040;-75
2023/04/25 07:39:48;;;;;;;11.57;2.22;;;7.90;99.90;;;;;;5046363;28;20094;-75
2023/04/25 07:42:14;;;;;;;10.13;2.42;;;8.00;99.90;;;;;;5054579;28;20569;-75
2023/04/25 07:44:40;;;;;;;15.35;2.45;;;7.90;99.90;;;;;;5044180;28;20196;-75
2023/04/25 07:47:07;;;;;;;9.88;2.10;;;8.00;99.90;;;;;;5046038;28;20543;-75
2023/04/25 07:49:36;;;;;;;10.27;2.30;;;7.90;99.90;;;;;;5051312;28;20059;-75
2023/04/25 07:52:03;;;;;;;10.85;1.90;;;7.70;99.90;;;;;;5044286;28;20039;-75
2023/04/25 07:54:29;;;;;;;7.60;1.67;;;7.60;99.90;;;;;;5064040;28;20387;-75
2023/04/25 07:56:55;;;;;;;11.25;2.28;;;7.50;99.90;;;;;;5051076;28;20036;-75
2023/04/25 07:59:22;;;;;;;10.55;2.42;;;7.50;99.90;;;;;;5046505;28;20059;-75
2023/04/25 08:01:47;;;;;;;8.85;1.92;;;7.60;99.90;;;;;;5050535;28;20040;-75
2023/04/25 08:04:13;;;;;;;7.43;1.90;;;7.60;99.90;;;;;;5058606;28;20047;-75
2023/04/25 08:06:40;;;;;;;12.65;2.03;;;7.60;99.90;;;;;;5043489;28;20051;-76
2023/04/25 08:09:06;;;;;;;8.43;2.40;;;7.70;99.90;;;;;;5057739;28;20048;-75
2023/04/25 08:11:32;;;;;;;10.32;2.38;;;7.90;99.90;;;;;;5061852;28;20102;-75
2023/04/25 08:13:57;;;;;;;10.88;1.92;;;8.00;99.90;;;;;;5054086;28;20389;-75
2023/04/25 08:16:23;;;;;;;9.80;2.35;;;8.20;99.90;;;;;;5047436;28;20117;-75
2023/04/25 08:18:50;;;;;;;11.38;2.20;;;8.20;99.90;;;;;;5028979;28;20062;-75
2023/04/25 08:21:15;;;;;;;6.43;1.60;;;8.10;99.90;;;;;;5052621;28;20147;-76
2023/04/25 08:23:41;;;;;;;7.47;1.73;;;7.50;99.90;;;;;;5032233;28;20143;-75
2023/04/25 08:26:07;;;;;;;7.28;1.55;;;6.80;99.90;;;;;;5038067;28;20054;-75
2023/04/25 08:28:33;;;;;;;8.65;1.77;;;6.10;99.90;;;;;;5048153;28;20051;-75
2023/04/25 08:30:59;;;;;;;7.05;1.52;;;5.90;99.90;;;;;;5054390;28;20505;-75
2023/04/25 08:33:25;;;;;;;6.68;1.67;;;5.80;99.90;;;;;;5065762;28;20094;-75
2023/04/25 08:35:51;;;;;;;6.43;1.55;;;5.90;99.90;;;;;;5051358;28;20514;-75
2023/04/25 08:38:17;;;;;;;7.53;1.88;;;6.00;99.90;;;;;;5052237;28;20078;-75
2023/04/25 08:40:43;;;;;;;6.00;1.80;;;6.90;99.90;;;;;;5031006;28;20416;-75
2023/04/25 08:43:12;;;;;;;6.10;1.73;;;6.40;99.90;;;;;;5052057;28;20044;-76
2023/04/25 08:45:42;;;;;;;6.68;1.67;;;6.50;99.90;;;;;;5043680;28;20132;-75
2023/04/25 08:48:12;;;;;;;7.45;1.70;;;6.70;99.90;;;;;;5055188;28;20512;-75
2023/04/25 08:50:56;;;;;;;5.63;1.73;;;6.90;99.90;;;;;;5038461;28;20421;-75
2023/04/25 08:53:29;;;;;;;6.18;1.60;;;7.10;99.90;;;;;;5054048;28;20070;-75
2023/04/25 08:55:56;;;;;;;7.47;1.77;;;7.30;99.90;;;;;;5063288;28;20502;-75
2023/04/25 08:58:22;;;;;;;6.75;1.63;;;7.30;99.90;;;;;;5051083;28;20086;-75
2023/04/25 09:00:49;;;;;;;10.30;1.80;;;7.40;99.90;;;;;;5052580;28;20039;-75
2023/04/25 09:03:15;;;;;;;12.45;1.98;;;7.50;99.90;;;;;;5044761;28;20478;-75
2023/04/25 09:05:42;;;;;;;11.27;2.33;;;7.50;99.90;;;;;;5043051;28;20052;-75
2023/04/25 09:08:08;;;;;;;7.75;1.80;;;7.70;99.90;;;;;;5053336;28;20044;-75
2023/04/25 09:10:34;;;;;;;8.40;2.10;;;8.00;99.90;;;;;;5051512;28;20054;-76
2023/04/25 09:13:26;;;;;;;9.25;2.20;;;8.30;99.90;;;;;;5064332;28;20613;-75
2023/04/25 09:15:54;;;;;;;14.47;2.40;;;8.50;99.90;;;;;;5051579;28;20067;-75
2023/04/25 09:18:27;;;;;;;8.05;2.05;;;8.80;99.90;;;;;;5068516;28;20420;-75
2023/04/25 09:21:07;;;;;;;16.88;2.45;;;9.10;99.90;;;;;;5051655;28;20097;-75
2023/04/25 09:23:59;;;;;;;12.55;2.10;;;9.20;99.90;;;;;;5048374;28;20490;-75
2023/04/25 09:26:26;;;;;;;7.78;2.10;;;9.10;99.90;;;;;;5027944;28;20063;-75
2023/04/25 09:29:06;;;;;;;9.80;1.90;;;9.00;99.90;;;;;;5054500;28;20033;-75
2023/04/25 09:31:33;;;;;;;11.55;2.30;;;9.10;99.90;;;;;;5053019;28;20055;-76
2023/04/25 09:34:03;;;;;;;9.13;1.90;;;9.20;99.90;;;;;;5052292;28;20044;-75
2023/04/25 09:36:30;;;;;;;9.18;2.10;;;9.30;99.90;;;;;;5051999;28;20115;-76
2023/04/25 09:38:56;;;;;;;11.18;2.03;;;8.80;99.90;;;;;;5051580;28;20040;-75
2023/04/25 09:41:25;;;;;;;6.82;1.50;;;8.40;99.90;;;;;;5055910;28;20059;-75
2023/04/25 09:43:51;;;;;;;10.02;1.88;;;8.10;99.90;;;;;;5044599;28;20036;-75
2023/04/25 09:46:18;;;;;;;7.75;1.83;;;7.90;99.90;;;;;;5061935;28;20041;-75
2023/04/25 09:48:51;;;;;;;8.77;2.03;;;7.80;99.90;;;;;;5068786;28;20041;-75
2023/04/25 09:51:16;;;;;;;9.55;1.92;;;8.00;99.90;;;;;;5052356;28;21228;-75
2023/04/25 09:53:50;;;;;;;10.18;2.13;;;8.10;99.90;;;;;;5063855;28;20452;-75
2023/04/25 09:56:16;;;;;;;10.82;2.10;;;8.30;99.90;;;;;;5052978;28;20036;-75
2023/04/25 09:58:42;;;;;;;9.15;2.05;;;8.40;99.90;;;;;;5053091;28;20138;-75
2023/04/25 10:01:10;;;;;;;9.43;2.13;;;8.50;99.90;;;;;;5021074;28;20032;-75
2023/04/25 10:03:40;;;;;;;11.85;1.95;;;8.60;99.90;;;;;;5053328;28;20518;-75
2023/04/25 10:06:19;;;;;;;10.00;2.05;;;8.80;99.90;;;;;;5053491;28;20366;-75
2023/04/25 10:08:49;;;;;;;11.32;2.55;;;9.10;99.90;;;;;;5041657;28;20039;-75
2023/04/25 10:11:16;;;;;;;12.50;2.47;;;9.20;99.90;;;;;;5052830;28;20066;-75
2023/04/25 10:13:42;;;;;;;9.23;2.08;;;9.30;99.90;;;;;;5045294;28;20044;-75
2023/04/25 10:16:08;;;;;;;10.80;2.25;;;9.40;99.90;;;;;;5053092;28;20193;-75
2023/04/25 10:18:34;;;;;;;11.18;2.10;;;9.40;99.90;;;;;;5072205;28;20043;-75
2023/04/25 10:21:03;;;;;;;9.65;1.98;;;9.20;99.90;;;;;;5054399;28;20108;-75
2023/04/25 10:23:31;;;;;;;6.40;1.60;;;8.50;99.90;;;;;;5068557;28;20037;-75
2023/04/25 10:25:57;;;;;;;7.55;1.85;;;7.80;99.90;;;;;;5061857;28;20033;-75
2023/04/25 10:28:23;;;;;;;6.38;1.67;;;7.30;99.90;;;;;;5075898;28;20120;-75
2023/04/25 10:31:02;;;;;;;7.70;1.50;;;6.90;99.90;;;;;;5058442;28;20383;-75
2023/04/25 10:33:42;;;;;;;7.30;1.63;;;6.70;99.90;;;;;;5071459;28;20570;-75
2023/04/25 10:36:10;;;;;;;7.72;1.90;;;6.50;99.90;;;;;;5070056;28;20036;-75
2023/04/25 10:38:37;;;;;;;9.90;1.98;;;6.50;99.90;;;;;;5077523;28;20032;-75
2023/04/25 10:41:08;;;;;;;9.95;2.13;;;6.80;99.90;;;;;;5065423;28;20397;-75
2023/04/25 10:43:41;;;;;;;11.13;2.00;;;7.20;99.90;;;;;;5066879;28;20043;-75
2023/04/25 10:46:28;;;;;;;9.60;1.98;;;7.60;99.90;;;;;;5087191;28;20052;-75
2023/04/25 10:48:56;;;;;;;11.48;2.17;;;8.00;99.90;;;;;;5051295;28;20114;-75
2023/04/25 10:51:27;;;;;;;10.73;2.10;;;8.40;99.90;;;;;;5062755;28;20043;-74
2023/04/25 10:53:57;;;;;;;13.30;2.72;;;9.00;99.90;;;;;;5067989;28;20058;-76
2023/04/25 10:56:28;;;;;;;12.95;2.17;;;8.70;99.90;;;;;;5070721;28;20032;-76
2023/04/25 10:59:09;;;;;;;10.52;2.15;;;8.80;99.90;;;;;;5041015;28;20498;-74
2023/04/25 11:01:46;;;;;;;9.10;2.00;;;8.50;99.90;;;;;;5070669;28;20040;-74
2023/04/25 11:04:23;;;;;;;11.32;2.10;;;8.30;99.90;;;;;;5070717;28;20047;-74
2023/04/25 11:07:04;;;;;;;14.05;2.38;;;8.50;99.90;;;;;;5071496;28;20130;-74
2023/04/25 11:09:30;;;;;;;10.23;1.90;;;8.10;99.90;;;;;;5063279;28;20044;-74
2023/04/25 11:11:58;;;;;;;8.48;1.85;;;8.10;99.90;;;;;;5045731;28;20045;-74
2023/04/25 11:14:24;;;;;;;10.73;2.22;;;8.20;99.90;;;;;;5086487;28;20501;-74
2023/04/25 11:16:57;;;;;;;8.45;1.90;;;8.60;99.90;;;;;;5034534;28;20040;-74
2023/04/25 11:19:24;;;;;;;10.45;2.00;;;8.80;99.90;;;;;;5064486;28;20101;-74
2023/04/25 11:21:50;;;;;;;7.88;2.05;;;9.10;99.90;;;;;;5032213;28;20100;-74
2023/04/25 11:24:19;;;;;;;9.35;1.90;;;9.40;99.90;;;;;;5061000;28;20076;-75
2023/04/25 11:26:48;;;;;;;8.35;1.92;;;9.60;99.90;;;;;;5063101;28;20075;-75
2023/04/25 11:29:13;;;;;;;8.48;1.77;;;9.60;99.90;;;;;;5052964;28;20042;-74
2023/04/25 11:31:44;;;;;;;8.75;2.00;;;9.40;99.90;;;;;;5043054;28;20115;-74
2023/04/25 11:34:10;;;;;;;8.15;1.63;;;9.40;99.90;;;;;;5069761;28;20120;-75
2023/04/25 11:36:38;;;;;;;7.28;1.83;;;9.50;99.90;;;;;;5071422;28;20127;-74
2023/04/25 11:39:05;;;;;;;10.23;2.13;;;9.60;99.90;;;;;;5070828;28;20043;-74
2023/04/25 11:41:31;;;;;;;14.30;1.92;;;9.70;99.90;;;;;;5057855;28;20120;-74
2023/04/25 11:43:57;;;;;;;9.70;2.22;;;9.80;99.90;;;;;;5046909;28;20062;-75
2023/04/25 11:46:23;;;;;;;9.98;2.05;;;10.00;99.90;;;;;;5075620;28;20145;-75
2023/04/25 11:48:50;;;;;;;12.93;2.58;;;10.00;99.90;;;;;;5073838;28;20040;-74
2023/04/25 11:51:16;;;;;;;10.30;2.53;;;10.00;99.90;;;;;;5037673;28;20074;-74
2023/04/25 11:53:44;;;;;;;10.98;2.47;;;9.80;99.90;;;;;;5067837;28;20071;-74
2023/04/25 11:56:13;;;;;;;8.85;1.90;;;9.70;99.90;;;;;;5057742;28;20055;-75
2023/04/25 11:58:59;;;;;;;9.85;2.25;;;9.70;99.90;;;;;;5075078;28;20116;-75
2023/04/25 12:01:36;;;;;;;10.85;2.10;;;9.40;99.90;;;;;;5064669;28;20083;-75
2023/04/25 12:04:16;;;;;;;7.28;1.80;;;9.40;99.90;;;;;;5088772;28;20407;-75
2023/04/25 12:06:43;;;;;;;9.13;2.25;;;9.70;99.90;;;;;;5085251;28;20043;-75
2023/04/25 12:09:11;;;;;;;10.60;2.40;;;9.80;99.90;;;;;;5053192;28;20525;-75
2023/04/25 12:11:48;;;;;;;10.73;2.20;;;9.70;99.90;;;;;;5051806;28;20082;-75
2023/04/25 12:14:28;;;;;;;12.02;2.33;;;9.60;99.90;;;;;;5073962;28;20064;-75
2023/04/25 12:17:02;;;;;;;11.10;2.15;;;10.00;99.90;;;;;;5074010;28;20051;-75
2023/04/25 12:19:33;;;;;;;7.95;2.00;;;10.20;99.90;;;;;;5066844;28;20044;-75
2023/04/25 12:22:18;;;;;;;9.05;1.98;;;10.10;99.90;;;;;;5056670;28;20036;-75
2023/04/25 12:24:45;;;;;;;11.15;2.30;;;9.90;99.90;;;;;;5056526;28;20493;-75
2023/04/25 12:27:10;;;;;;;11.32;2.00;;;9.60;99.90;;;;;;5054465;28;20036;-75
2023/04/25 12:29:36;;;;;;;14.07;2.58;;;9.30;99.90;;;;;;5053891;28;20482;-74
2023/04/25 12:32:02;;;;;;;8.85;1.90;;;9.20;99.90;;;;;;5070274;28;20052;-75
2023/04/25 12:34:27;;;;;;;11.38;2.40;;;9.50;99.90;;;;;;5041644;28;20062;-75
2023/04/25 12:36:54;;;;;;;9.63;2.20;;;9.90;99.90;;;;;;5069959;28;20442;-75
2023/04/25 12:39:24;;;;;;;10.27;2.00;;;10.00;99.90;;;;;;5053721;28;20139;-75
2023/04/25 12:41:56;;;;;;;10.52;2.30;;;10.00;99.90;;;;;;5063110;28;20115;-75
2023/04/25 12:44:22;;;;;;;9.50;1.98;;;9.80;99.90;;;;;;5034274;28;20040;-75
2023/04/25 12:46:48;;;;;;;6.00;1.65;;;9.50;99.90;;;;;;5051337;28;20040;-74
2023/04/25 12:49:14;;;;;;;13.70;2.28;;;9.30;99.90;;;;;;5043492;28;20047;-75
2023/04/25 12:51:41;;;;;;;10.73;2.10;;;9.50;99.90;;;;;;5068649;28;20043;-75